Time;durP1;ratioP1;P1;durP2;ratioP2;P2;SDS_P1;SDS_P2;PMS_P1;PMS_P2;Temp;Humidity;BMP_temperature;BMP_pressure;BME280_temperature;BME280_humidity;BME280_pressure;Samples;Min_cycle;Max_cycle;Signal;HPM_P1;HPM_P2
2022/10/25 00:01:44;;;;;;;14.60;12.10;;;;;;;21.19;44.53;95523.78;6137910;28;103612;-78
2022/10/25 00:04:47;;;;;;;14.00;11.50;;;;;;;21.20;44.44;95519.25;6130762;28;104423;-78
2022/10/25 00:07:51;;;;;;;13.13;11.83;;;;;;;21.19;44.40;95513.13;6136848;28;104081;-78
2022/10/25 00:10:54;;;;;;;14.03;11.67;;;;;;;21.19;44.23;95521.13;6137600;28;103556;-77
2022/10/25 00:14:01;;;;;;;13.07;11.57;;;;;;;21.20;44.55;95516.59;6138053;28;103436;-77
2022/10/25 00:17:04;;;;;;;13.73;12.23;;;;;;;21.21;44.32;95526.16;6130490;28;103535;-77
2022/10/25 00:20:08;;;;;;;17.53;12.13;;;;;;;21.20;44.33;95522.69;6141227;28;103276;-77
2022/10/25 00:23:11;;;;;;;12.07;10.90;;;;;;;21.13;43.94;95508.16;6142284;28;105342;-78
2022/10/25 00:26:14;;;;;;;16.57;11.50;;;;;;;21.19;44.26;95512.34;6135929;28;103092;-77
2022/10/25 00:29:19;;;;;;;13.20;11.80;;;;;;;21.23;44.14;95509.91;6139328;28;103417;-77
2022/10/25 00:32:23;;;;;;;13.20;10.70;;;;;;;21.20;44.04;95524.56;6141144;28;103471;-77
2022/10/25 00:35:26;;;;;;;13.07;11.00;;;;;;;21.18;44.07;95521.41;6141677;28;104552;-78
2022/10/25 00:38:30;;;;;;;14.27;12.27;;;;;;;21.15;44.27;95524.63;6134474;28;102846;-77
2022/10/25 00:41:34;;;;;;;14.97;11.63;;;;;;;21.12;44.36;95517.22;6141163;28;103162;-77
2022/10/25 00:44:51;;;;;;;14.67;10.83;;;;;;;21.15;44.33;95519.31;6141546;28;103317;-78
2022/10/25 00:48:00;;;;;;;15.40;12.37;;;;;;;21.12;44.49;95514.56;6140716;28;103366;-77
2022/10/25 00:51:04;;;;;;;12.97;10.77;;;;;;;21.11;44.34;95511.09;6133984;28;104029;-77
2022/10/25 00:54:11;;;;;;;14.30;11.43;;;;;;;21.12;44.15;95506.56;6140497;28;102796;-76
2022/10/25 00:57:17;;;;;;;15.47;11.93;;;;;;;21.12;44.28;95502.03;6140593;28;103249;-76
2022/10/25 01:00:22;;;;;;;14.53;12.90;;;;;;;21.13;44.28;95505.50;6135227;28;103622;-76
2022/10/25 01:03:26;;;;;;;14.40;11.73;;;;;;;21.10;43.99;95504.22;6140209;28;103696;-77
2022/10/25 01:06:34;;;;;;;17.43;12.10;;;;;;;21.10;44.21;95498.88;6140044;28;103125;-76
2022/10/25 01:09:39;;;;;;;19.87;13.30;;;;;;;21.10;43.85;95504.22;6140874;28;103776;-76
2022/10/25 01:12:45;;;;;;;15.43;12.13;;;;;;;21.10;44.17;95498.88;6132517;28;103095;-77
2022/10/25 01:16:03;;;;;;;16.50;12.20;;;;;;;21.10;43.85;95495.44;6151697;28;102794;-77
2022/10/25 01:19:19;;;;;;;19.03;12.77;;;;;;;21.06;43.81;95491.78;6139946;28;103906;-77
2022/10/25 01:22:28;;;;;;;13.23;11.93;;;;;;;21.05;44.27;95484.88;6140308;28;103542;-77
2022/10/25 01:25:58;;;;;;;14.30;11.30;;;;;;;21.06;43.95;95486.44;6132247;28;104115;-77
2022/10/25 01:29:26;;;;;;;16.07;13.00;;;;;;;21.02;44.29;95490.75;6139034;28;103211;-77
2022/10/25 01:32:38;;;;;;;17.50;13.23;;;;;;;21.06;44.02;95491.78;6139964;28;102964;-77
2022/10/25 01:35:51;;;;;;;17.03;12.17;;;;;;;21.04;44.11;95485.91;6133678;28;103430;-77
2022/10/25 01:39:01;;;;;;;13.53;12.13;;;;;;;21.03;43.86;95487.00;6139743;28;103643;-76
2022/10/25 01:42:08;;;;;;;14.33;12.30;;;;;;;21.01;44.10;95486.50;6140216;28;106230;-76
2022/10/25 01:45:15;;;;;;;15.00;13.17;;;;;;;21.04;44.04;95486.72;6140502;28;103294;-76
2022/10/25 01:48:26;;;;;;;17.60;13.73;;;;;;;21.04;43.90;95478.72;6131930;28;105085;-78
2022/10/25 01:51:29;;;;;;;17.13;14.17;;;;;;;21.04;43.99;95485.91;6138590;28;103045;-77
2022/10/25 01:54:32;;;;;;;15.67;14.07;;;;;;;21.00;43.99;95483.03;6143144;28;103729;-77
2022/10/25 01:57:58;;;;;;;14.47;12.93;;;;;;;21.02;43.55;95474.78;6159972;28;103576;-74
2022/10/25 02:01:11;;;;;;;14.13;12.70;;;;;;;21.04;43.97;95480.59;6164292;28;104402;-78
2022/10/25 02:04:28;;;;;;;15.60;13.33;;;;;;;20.97;43.91;95472.16;6151579;28;103397;-78
2022/10/25 02:07:37;;;;;;;15.50;13.60;;;;;;;21.01;43.87;95474.00;6138787;28;103556;-78
2022/10/25 02:10:44;;;;;;;15.40;13.80;;;;;;;20.99;43.88;95472.66;6131648;28;104084;-79
2022/10/25 02:14:03;;;;;;;14.93;13.43;;;;;;;20.99;43.88;95476.13;6140078;28;103634;-79
2022/10/25 02:17:13;;;;;;;16.73;13.53;;;;;;;20.96;43.99;95481.22;6121674;28;103013;-79
2022/10/25 02:20:24;;;;;;;14.47;13.17;;;;;;;20.93;44.07;95472.75;6139737;28;104208;-78
2022/10/25 02:23:28;;;;;;;15.43;13.93;;;;;;;20.96;43.86;95481.22;6134909;28;103404;-79
2022/10/25 02:26:33;;;;;;;20.30;14.23;;;;;;;20.96;43.60;95470.59;6139447;28;103685;-79
2022/10/25 02:29:37;;;;;;;18.67;14.30;;;;;;;20.98;43.93;95471.09;6134553;28;103015;-78
2022/10/25 02:32:40;;;;;;;16.50;14.80;;;;;;;20.96;43.76;95470.59;6132179;28;104255;-79
2022/10/25 02:35:45;;;;;;;16.03;13.80;;;;;;;20.91;44.10;95463.47;6139194;28;102952;-78
2022/10/25 02:38:48;;;;;;;16.50;14.63;;;;;;;;;;6139189;28;103281;-78
2022/10/25 02:41:51;;;;;;;15.17;13.70;;;;;;;20.90;44.07;95460.03;6139135;28;103041;-78
2022/10/25 02:44:54;;;;;;;15.57;14.10;;;;;;;20.93;43.90;95454.13;6126747;28;103430;-79
2022/10/25 02:47:58;;;;;;;19.03;15.50;;;;;;;20.90;43.75;95456.56;6139498;28;104989;-79
2022/10/25 02:51:02;;;;;;;15.87;14.27;;;;;;;20.94;43.83;95460.22;6138827;28;103285;-79
2022/10/25 02:54:05;;;;;;;15.13;13.63;;;;;;;20.91;43.95;95472.25;6138340;28;103744;-79
2022/10/25 02:57:08;;;;;;;15.67;14.07;;;;;;;20.91;43.70;95466.13;6131552;28;103382;-78
2022/10/25 03:00:13;;;;;;;18.33;14.07;;;;;;;20.90;43.85;95472.53;6139450;28;103771;-79
2022/10/25 03:03:17;;;;;;;15.50;14.10;;;;;;;20.91;43.50;95468.78;6139049;28;103051;-79
2022/10/25 03:06:22;;;;;;;14.67;13.17;;;;;;;20.90;44.05;95470.66;6136975;28;103337;-80
2022/10/25 03:09:25;;;;;;;16.93;12.73;;;;;;;20.90;44.29;95462.69;6134664;28;104178;-79
2022/10/25 03:12:28;;;;;;;17.10;13.57;;;;;;;20.93;44.43;95461.31;6139776;28;103569;-78
2022/10/25 03:15:31;;;;;;;13.57;12.00;;;;;;;;;;6139398;28;103555;-79
2022/10/25 03:18:33;;;;;;;19.47;14.37;;;;;;;;;;6133616;28;105761;-79
2022/10/25 03:21:38;;;;;;;16.97;14.23;;;;;;;20.94;44.01;95470.88;6138609;28;103795;-78
2022/10/25 03:24:43;;;;;;;17.17;13.67;;;;;;;20.94;43.77;95468.22;6138402;28;103068;-79
2022/10/25 03:27:47;;;;;;;18.40;14.23;;;;;;;20.92;43.58;95457.88;6139498;28;103048;-79
2022/10/25 03:30:50;;;;;;;19.50;12.90;;;;;;;20.96;43.48;95470.59;6131662;28;104468;-78
2022/10/25 03:33:54;;;;;;;20.03;14.60;;;;;;;20.97;43.22;95464.19;6138159;28;103439;-78
2022/10/25 03:36:59;;;;;;;18.33;13.67;;;;;;;20.92;43.22;95459.72;6138995;28;105908;-78
2022/10/25 03:40:03;;;;;;;15.60;13.53;;;;;;;20.92;43.53;95465.84;6138332;28;103057;-78
2022/10/25 03:43:06;;;;;;;14.90;12.40;;;;;;;20.88;43.78;95464.84;6130799;28;103120;-78
2022/10/25 03:46:09;;;;;;;17.33;12.53;;;;;;;20.88;44.04;95464.84;6138780;28;103400;-78
2022/10/25 03:49:12;;;;;;;16.33;12.60;;;;;;;20.90;43.86;95462.69;6138730;28;103262;-79
2022/10/25 03:52:17;;;;;;;17.70;12.37;;;;;;;20.91;44.09;95472.25;6162210;28;105097;-78
2022/10/25 03:55:20;;;;;;;14.07;11.90;;;;;;;20.93;44.38;95462.09;6155669;28;105615;-77
2022/10/25 03:58:23;;;;;;;14.50;12.50;;;;;;;20.98;43.90;95455.91;6141942;28;103295;-76
2022/10/25 04:01:26;;;;;;;16.17;13.50;;;;;;;20.98;44.86;95449.81;6141820;28;103064;-78
2022/10/25 04:04:31;;;;;;;17.70;12.03;;;;;;;20.97;45.05;95446.34;6139665;28;104032;-78
2022/10/25 04:07:35;;;;;;;17.27;11.40;;;;;;;20.98;44.36;95447.13;6116853;28;103073;-78
2022/10/25 04:10:38;;;;;;;15.63;13.83;;;;;;;;;;6142006;28;103152;-79
2022/10/25 04:13:42;;;;;;;18.07;13.47;;;;;;;21.02;43.79;95442.84;6141243;28;102829;-78
2022/10/25 04:16:45;;;;;;;20.13;14.47;;;;;;;21.08;43.93;95444.38;6129749;28;106372;-78
2022/10/25 04:19:48;;;;;;;18.23;12.23;;;;;;;21.03;43.52;95455.06;6139657;28;103317;-82
2022/10/25 04:22:56;;;;;;;14.77;10.20;;;;;;;20.80;43.12;95446.06;6142181;28;103819;-80
2022/10/25 04:25:59;;;;;;;15.20;9.23;;;;;;;20.75;42.79;95454.91;6142344;28;103317;-80
2022/10/25 04:29:04;;;;;;;12.60;9.47;;;;;;;20.67;42.76;95449.44;6136843;28;104381;-80
2022/10/25 04:32:07;;;;;;;14.43;9.50;;;;;;;20.65;43.32;95448.94;6142550;28;104109;-80
2022/10/25 04:35:11;;;;;;;17.00;8.83;;;;;;;20.66;43.47;95472.56;6125421;28;102995;-80
2022/10/25 04:38:16;;;;;;;11.70;9.27;;;;;;;20.59;43.15;95459.63;6139269;28;103740;-80
2022/10/25 04:41:20;;;;;;;14.10;10.30;;;;;;;20.58;43.34;95463.38;6138765;28;103012;-80
2022/10/25 04:44:24;;;;;;;14.50;10.10;;;;;;;20.58;43.35;95475.88;6142493;28;104473;-80
2022/10/25 04:47:30;;;;;;;14.57;8.30;;;;;;;20.47;42.98;95469.88;6142437;28;103162;-81
2022/10/25 04:50:37;;;;;;;14.13;8.70;;;;;;;20.51;42.83;95470.13;6135688;28;103156;-81
2022/10/25 04:53:44;;;;;;;12.30;8.20;;;;;;;20.49;42.92;95470.38;6142357;28;105638;-81
2022/10/25 04:56:47;;;;;;;14.40;9.37;;;;;;;20.48;42.71;95476.78;6141524;28;103534;-81
2022/10/25 04:59:56;;;;;;;15.37;9.70;;;;;;;20.44;42.73;95483.75;6142138;28;103269;-81
2022/10/25 05:02:59;;;;;;;18.70;9.43;;;;;;;20.47;42.97;95479.72;6135540;28;104676;-81
2022/10/25 05:06:07;;;;;;;20.50;10.17;;;;;;;20.45;42.29;95481.88;6142143;28;103434;-81
2022/10/25 05:09:11;;;;;;;17.07;9.83;;;;;;;20.42;42.59;95479.78;6141554;28;103581;-81
2022/10/25 05:12:16;;;;;;;18.27;10.00;;;;;;;20.41;42.91;95468.38;6139963;28;103235;-81
2022/10/25 05:15:19;;;;;;;18.73;10.23;;;;;;;20.37;42.37;95474.53;6138366;28;105533;-81
2022/10/25 05:18:22;;;;;;;13.70;10.50;;;;;;;20.37;42.15;95472.69;6141824;28;103388;-81
2022/10/25 05:21:27;;;;;;;16.80;11.20;;;;;;;20.35;41.98;95471.38;6142350;28;107749;-81
2022/10/25 05:27:49;;;;;;;18.10;10.30;;;;;;;20.34;42.14;95470.59;6139924;28;103743;-81
2022/10/25 05:30:52;;;;;;;16.80;11.33;;;;;;;20.31;42.36;95479.91;6141451;28;103518;-81
2022/10/25 05:33:57;;;;;;;20.07;11.37;;;;;;;20.31;42.21;95477.25;6141187;28;103564;-81
2022/10/25 05:37:00;;;;;;;13.40;10.87;;;;;;;20.35;42.13;95492.66;6135703;28;103670;-82
2022/10/25 05:40:06;;;;;;;20.17;10.73;;;;;;;20.37;42.42;95498.47;6142258;28;104275;-82
2022/10/25 05:43:09;;;;;;;19.23;11.07;;;;;;;20.30;42.32;95507.56;6141827;28;103139;-80
2022/10/25 05:46:14;;;;;;;17.20;11.10;;;;;;;20.37;42.57;95512.53;6140992;28;103418;-81
2022/10/25 05:49:17;;;;;;;14.20;11.00;;;;;;;20.41;42.41;95521.53;6136929;28;104176;-81
2022/10/25 05:52:21;;;;;;;18.93;11.20;;;;;;;20.41;42.22;95515.44;6141439;28;103008;-81
2022/10/25 05:55:25;;;;;;;21.73;12.33;;;;;;;20.43;42.95;95521.25;6141486;28;105579;-83
2022/10/25 05:58:28;;;;;;;19.00;11.30;;;;;;;20.52;42.94;95528.34;6135512;28;103815;-82
2022/10/25 06:01:31;;;;;;;17.43;11.57;;;;;;;20.62;42.78;95536.16;6142948;28;106343;-83
2022/10/25 06:04:34;;;;;;;18.50;10.90;;;;;;;20.78;43.00;95528.00;6142052;28;103028;-82
2022/10/25 06:07:38;;;;;;;19.57;10.47;;;;;;;20.86;42.67;95541.50;6141912;28;105106;-81
2022/10/25 06:10:42;;;;;;;21.77;11.40;;;;;;;20.96;43.19;95539.75;6135926;28;105714;-81
2022/10/25 06:13:47;;;;;;;17.23;10.00;;;;;;;20.97;43.25;95546.66;6142630;28;103384;-82
2022/10/25 06:16:50;;;;;;;15.90;10.40;;;;;;;21.04;43.85;95531.16;6140989;28;102891;-81
2022/10/25 06:19:53;;;;;;;16.90;10.47;;;;;;;21.13;43.76;95530.25;6141621;28;105592;-81
2022/10/25 06:22:56;;;;;;;17.33;10.53;;;;;;;21.16;43.00;95544.84;6135206;28;103369;-81
2022/10/25 06:26:05;;;;;;;16.63;10.47;;;;;;;21.28;42.83;95549.75;6141365;28;104246;-81
2022/10/25 06:29:09;;;;;;;17.67;10.97;;;;;;;21.33;43.58;95553.13;6140411;28;103378;-80
2022/10/25 06:32:13;;;;;;;15.93;11.43;;;;;;;21.39;42.61;95553.84;6137776;28;103776;-78
2022/10/25 06:35:16;;;;;;;17.10;11.73;;;;;;;21.42;42.68;95546.06;6137008;28;104334;-81
2022/10/25 06:38:19;;;;;;;16.57;11.60;;;;;;;21.49;42.63;95543.03;6140498;28;102787;-80
2022/10/25 06:41:26;;;;;;;16.90;11.00;;;;;;;21.45;42.44;95534.03;6140316;28;103224;-80
2022/10/25 06:44:29;;;;;;;18.13;11.83;;;;;;;21.60;42.12;95551.66;6133269;28;103311;-80
2022/10/25 06:47:32;;;;;;;18.87;11.70;;;;;;;21.63;42.19;95556.41;6123749;28;103562;-80
2022/10/25 06:50:38;;;;;;;20.57;13.50;;;;;;;21.64;42.26;95553.47;6140258;28;103058;-80
2022/10/25 06:53:42;;;;;;;22.30;11.07;;;;;;;21.71;41.74;95553.09;6140379;28;104167;-80
2022/10/25 06:56:47;;;;;;;16.87;11.10;;;;;;;21.76;42.24;95553.81;6134322;28;103774;-81
2022/10/25 06:59:51;;;;;;;20.87;10.33;;;;;;;21.81;42.41;95551.06;6139369;28;103713;-81
2022/10/25 07:02:57;;;;;;;19.60;11.30;;;;;;;21.87;42.37;95546.47;6139934;28;103431;-80
2022/10/25 07:06:01;;;;;;;20.27;12.00;;;;;;;21.91;42.43;95533.38;6136865;28;108168;-80
2022/10/25 07:09:05;;;;;;;17.37;11.30;;;;;;;21.93;42.24;95532.00;6135678;28;104211;-80
2022/10/25 07:12:10;;;;;;;14.60;9.70;;;;;;;21.97;42.36;95529.53;6139677;28;103194;-81
2022/10/25 07:15:15;;;;;;;17.50;9.90;;;;;;;21.99;42.25;95536.13;6139362;28;103113;-80
2022/10/25 07:18:18;;;;;;;16.00;10.10;;;;;;;22.04;41.99;95533.41;6133993;28;104198;-79
2022/10/25 07:21:22;;;;;;;18.93;10.73;;;;;;;22.10;42.34;95526.88;6139831;28;103037;-79
2022/10/25 07:24:25;;;;;;;13.97;9.77;;;;;;;22.12;42.60;95523.94;6140025;28;103955;-79
2022/10/25 07:27:33;;;;;;;12.83;10.87;;;;;;;22.18;42.05;95528.09;6141639;28;104573;-80
2022/10/25 07:30:36;;;;;;;17.20;10.53;;;;;;;22.23;42.10;95516.56;6136048;28;104531;-79
2022/10/25 07:33:39;;;;;;;16.10;10.70;;;;;;;22.29;42.43;95518.03;6143763;28;104191;-80
2022/10/25 07:36:42;;;;;;;15.93;10.43;;;;;;;22.34;42.39;95512.59;6143992;28;102951;-78
2022/10/25 07:39:45;;;;;;;16.73;9.90;;;;;;;22.35;42.29;95523.00;6143301;28;103040;-79
2022/10/25 07:42:51;;;;;;;17.50;10.30;;;;;;;22.37;41.82;95520.03;6139548;28;104413;-80
2022/10/25 07:45:54;;;;;;;17.50;9.93;;;;;;;22.39;41.89;95520.53;6143861;28;104015;-79
2022/10/25 07:48:58;;;;;;;15.00;10.43;;;;;;;22.45;41.71;95522.00;6143185;28;103416;-80
2022/10/25 07:52:01;;;;;;;15.67;10.23;;;;;;;22.49;41.72;95522.19;6137389;28;105181;-79
2022/10/25 07:55:04;;;;;;;16.77;10.03;;;;;;;22.50;41.97;95519.22;6143230;28;103585;-78
2022/10/25 07:58:11;;;;;;;12.17;9.40;;;;;;;22.56;41.87;95517.25;6142892;28;103013;-79
2022/10/25 08:01:19;;;;;;;16.77;9.30;;;;;;;22.61;41.98;95515.31;6142006;28;103477;-79
2022/10/25 08:04:22;;;;;;;14.97;10.20;;;;;;;22.63;41.57;95507.00;6137776;28;103552;-79
2022/10/25 08:07:26;;;;;;;19.07;10.30;;;;;;;22.64;41.81;95509.38;6141556;28;103109;-79
2022/10/25 08:10:29;;;;;;;17.60;9.80;;;;;;;22.64;42.04;95503.25;6143428;28;104321;-80
2022/10/25 08:13:35;;;;;;;18.60;10.60;;;;;;;22.67;41.78;95508.78;6142791;28;104117;-79
2022/10/25 08:16:38;;;;;;;16.80;9.70;;;;;;;22.67;42.22;95508.78;6136693;28;105322;-82
2022/10/25 08:19:41;;;;;;;17.57;10.03;;;;;;;22.66;41.52;95515.19;6143090;28;103531;-80
2022/10/25 08:22:50;;;;;;;15.00;10.23;;;;;;;22.69;41.70;95495.94;6146715;28;106037;-81
2022/10/25 08:25:54;;;;;;;15.70;10.37;;;;;;;22.72;42.12;95496.44;6136346;28;103417;-79
2022/10/25 08:28:58;;;;;;;15.53;9.50;;;;;;;22.72;42.21;95488.44;6141994;28;103883;-79
2022/10/25 08:32:01;;;;;;;14.80;9.80;;;;;;;22.73;42.38;95495.34;6141976;28;103907;-80
2022/10/25 08:35:05;;;;;;;13.23;10.23;;;;;;;22.74;42.01;95494.25;6142003;28;103327;-80
2022/10/25 08:38:09;;;;;;;20.37;12.20;;;;;;;22.74;42.11;95486.25;6135543;28;104085;-79
2022/10/25 08:41:18;;;;;;;17.27;12.70;;;;;;;22.75;41.93;95487.84;6142875;28;102885;-80
2022/10/25 08:44:32;;;;;;;13.43;11.10;;;;;;;22.76;42.25;95486.75;6142152;28;103433;-80
2022/10/25 08:47:41;;;;;;;13.60;11.00;;;;;;;22.72;41.92;95483.09;6142231;28;103520;-80
2022/10/25 08:50:47;;;;;;;14.50;10.60;;;;;;;22.72;42.58;95483.88;6136336;28;104451;-80
2022/10/25 08:53:54;;;;;;;14.00;11.13;;;;;;;22.73;42.07;95482.78;6142411;28;103222;-79
2022/10/25 08:57:06;;;;;;;14.57;10.47;;;;;;;22.73;42.23;95469.47;6141659;28;103419;-80
2022/10/25 09:00:22;;;;;;;14.07;10.37;;;;;;;22.71;42.28;95474.31;6135313;28;106675;-80
2022/10/25 09:03:27;;;;;;;15.50;10.50;;;;;;;22.67;42.25;95463.41;6140545;28;103634;-79
2022/10/25 09:06:36;;;;;;;15.53;10.63;;;;;;;22.67;42.36;95470.63;6141454;28;102954;-80
2022/10/25 09:09:49;;;;;;;15.87;10.77;;;;;;;22.66;42.18;95466.38;6141764;28;103191;-80
2022/10/25 09:13:00;;;;;;;19.00;10.70;;;;;;;22.66;41.98;95467.19;6134397;28;103601;-80
2022/10/25 09:16:16;;;;;;;18.50;11.57;;;;;;;22.65;42.64;95457.59;6142173;28;103846;-80
2022/10/25 09:19:32;;;;;;;24.03;11.53;;;;;;;22.69;41.86;95458.59;6141559;28;104118;-80
2022/10/25 09:22:45;;;;;;;21.67;12.57;;;;;;;22.74;41.97;95462.25;6136119;28;104573;-80
2022/10/25 09:25:55;;;;;;;19.03;12.50;;;;;;;22.74;42.29;95465.69;6141463;28;103205;-80
2022/10/25 09:29:04;;;;;;;18.50;12.07;;;;;;;22.72;42.11;95457.22;6141823;28;105026;-80
2022/10/25 09:32:17;;;;;;;15.70;12.40;;;;;;;22.72;42.04;95457.22;6141726;28;104662;-80
2022/10/25 09:35:24;;;;;;;18.30;14.40;;;;;;;22.73;42.11;95461.44;6133353;28;103423;-80
2022/10/25 09:38:37;;;;;;;18.07;15.57;;;;;;;22.74;42.46;95460.34;6140753;28;103017;-80
2022/10/25 09:41:45;;;;;;;20.37;16.50;;;;;;;22.75;42.36;95448.59;6141377;28;104190;-80
2022/10/25 09:44:52;;;;;;;19.07;16.77;;;;;;;22.76;42.27;95441.38;6138985;28;103723;-79
2022/10/25 09:48:04;;;;;;;21.50;19.13;;;;;;;22.75;42.14;95451.28;6137035;28;104168;-79
2022/10/25 09:51:18;;;;;;;20.50;18.50;;;;;;;22.75;42.23;95435.25;6140163;28;103687;-79
2022/10/25 09:54:28;;;;;;;21.07;18.93;;;;;;;22.75;42.46;95435.25;6141018;28;103768;-80
2022/10/25 09:57:31;;;;;;;22.27;18.73;;;;;;;22.76;42.15;95433.38;6134678;28;105610;-80
2022/10/25 10:00:39;;;;;;;20.50;18.33;;;;;;;22.74;42.61;95430.22;6140604;28;103110;-80
2022/10/25 10:03:46;;;;;;;21.43;17.30;;;;;;;22.73;42.00;95416.09;6140756;28;104193;-81
2022/10/25 10:06:59;;;;;;;23.67;16.67;;;;;;;22.70;42.13;95420.16;6139293;28;103129;-80
2022/10/25 10:10:07;;;;;;;23.13;17.03;;;;;;;22.70;41.93;95414.81;6133955;28;105021;-80
2022/10/25 10:13:17;;;;;;;19.93;14.93;;;;;;;22.69;41.97;95415.91;6140631;28;104528;-81
2022/10/25 10:16:24;;;;;;;18.90;16.83;;;;;;;22.66;42.13;95407.69;6141012;28;104799;-81
2022/10/25 10:19:30;;;;;;;19.47;15.53;;;;;;;22.69;42.61;95399.91;6135068;28;103587;-79
2022/10/25 10:22:33;;;;;;;21.10;16.83;;;;;;;22.66;42.16;95400.47;6139029;28;104177;-80
2022/10/25 10:25:36;;;;;;;20.73;16.97;;;;;;;22.64;42.48;95394.66;6140362;28;106122;-81
2022/10/25 10:28:45;;;;;;;19.73;17.60;;;;;;;22.63;42.56;95393.09;6141014;28;103993;-79
2022/10/25 10:31:51;;;;;;;19.50;17.60;;;;;;;22.63;42.16;95382.41;6134282;28;104546;-81
2022/10/25 10:34:58;;;;;;;21.37;19.27;;;;;;;22.62;42.58;95388.06;6140889;28;104850;-80
2022/10/25 10:38:21;;;;;;;21.33;19.33;;;;;;;22.58;42.57;95379.88;6139284;28;103044;-80
2022/10/25 10:41:27;;;;;;;22.00;19.47;;;;;;;22.56;42.38;95374.03;6138246;28;106239;-81
2022/10/25 10:44:33;;;;;;;22.03;20.00;;;;;;;22.55;42.15;95372.44;6137140;28;104083;-81
2022/10/25 10:47:42;;;;;;;21.27;19.20;;;;;;;22.55;42.12;95367.09;6140171;28;104165;-81
2022/10/25 10:50:50;;;;;;;21.80;19.50;;;;;;;22.53;42.23;95350.63;6140531;28;104190;-81
2022/10/25 10:53:55;;;;;;;21.53;18.87;;;;;;;22.52;42.43;95353.59;6133666;28;104234;-81
2022/10/25 10:57:00;;;;;;;20.07;17.97;;;;;;;22.52;42.79;95342.91;6139987;28;104391;-80
2022/10/25 11:00:04;;;;;;;19.87;17.87;;;;;;;22.49;42.62;95349.63;6140285;28;103235;-80
2022/10/25 11:03:35;;;;;;;19.43;17.53;;;;;;;22.48;42.44;95349.94;6140067;28;104086;-80
2022/10/25 11:06:40;;;;;;;19.20;17.30;;;;;;;22.46;42.63;95341.44;6133482;28;103410;-79
2022/10/25 11:09:43;;;;;;;17.90;15.93;;;;;;;22.47;42.66;95338.47;6138431;28;103434;-80
2022/10/25 11:13:05;;;;;;;17.70;15.80;;;;;;;22.44;42.73;95331.06;6140704;28;104771;-80
2022/10/25 11:16:38;;;;;;;16.37;14.77;;;;;;;22.44;42.92;95317.75;6133239;28;103115;-81
2022/10/25 11:20:01;;;;;;;19.00;16.63;;;;;;;22.44;42.84;95327.63;6139816;28;103559;-80
2022/10/25 11:23:20;;;;;;;16.97;15.20;;;;;;;22.41;42.86;95321.00;6139703;28;103142;-80
2022/10/25 11:26:31;;;;;;;16.40;14.70;;;;;;;22.39;42.54;95321.31;6140115;28;103969;-80
2022/10/25 11:30:04;;;;;;;15.57;14.07;;;;;;;22.41;42.88;95313.81;6133291;28;103579;-80
2022/10/25 11:33:29;;;;;;;17.30;15.57;;;;;;;22.36;42.36;95307.81;6138623;28;103128;-80
2022/10/25 11:36:42;;;;;;;18.47;16.30;;;;;;;22.38;42.30;95305.63;6139864;28;104541;-80
2022/10/25 11:39:58;;;;;;;17.07;15.30;;;;;;;22.34;42.95;95300.06;6132261;28;103297;-80
2022/10/25 11:43:17;;;;;;;18.00;16.20;;;;;;;22.37;42.38;95296.06;6139039;28;103288;-79
2022/10/25 11:46:29;;;;;;;19.40;16.13;;;;;;;22.32;42.76;95290.81;6139222;28;103092;-79
2022/10/25 11:49:48;;;;;;;18.50;16.67;;;;;;;22.30;42.85;95279.66;6136622;28;103333;-80
2022/10/25 11:53:23;;;;;;;20.00;18.00;;;;;;;22.32;42.56;95275.59;6136509;28;104005;-80
2022/10/25 11:56:36;;;;;;;19.10;17.20;;;;;;;22.29;42.60;95273.53;6139426;28;105672;-80
2022/10/25 11:59:52;;;;;;;19.03;17.23;;;;;;;22.26;42.85;95268.81;6139816;28;105950;-79
2022/10/25 12:03:12;;;;;;;18.93;17.10;;;;;;;22.25;42.89;95261.13;6132108;28;105310;-79
2022/10/25 12:06:23;;;;;;;19.87;17.77;;;;;;;22.25;42.96;95266.44;6138648;28;103611;-79
2022/10/25 12:09:36;;;;;;;19.13;17.23;;;;;;;22.26;42.95;95265.38;6138211;28;104385;-78
2022/10/25 12:12:47;;;;;;;21.43;19.23;;;;;;;22.24;42.78;95260.34;6135611;28;103089;-80
2022/10/25 12:15:55;;;;;;;19.43;17.43;;;;;;;22.24;43.10;95256.88;6141704;28;104425;-80
2022/10/25 12:19:07;;;;;;;20.27;18.30;;;;;;;22.24;42.52;95256.88;6144008;28;106074;-80
2022/10/25 12:22:17;;;;;;;20.13;18.23;;;;;;;22.22;43.07;95251.84;6143715;28;104359;-81
2022/10/25 12:25:26;;;;;;;21.23;19.13;;;;;;;22.27;42.88;95248.28;6136794;28;105247;-79
2022/10/25 12:28:42;;;;;;;21.37;19.40;;;;;;;22.26;42.91;95247.50;6144587;28;103534;-79
2022/10/25 12:31:49;;;;;;;20.97;19.17;;;;;;;22.30;43.41;95243.13;6142954;28;103116;-79
2022/10/25 12:34:54;;;;;;;20.50;18.60;;;;;;;22.35;43.68;95244.91;6142263;28;103215;-80
2022/10/25 12:38:02;;;;;;;19.87;17.97;;;;;;;22.28;42.38;95241.84;6137562;28;102792;-79
2022/10/25 12:41:16;;;;;;;21.93;20.03;;;;;;;22.24;43.21;95252.34;6141916;28;103224;-79
2022/10/25 12:44:46;;;;;;;21.57;19.67;;;;;;;22.21;42.86;95260.94;6142250;28;103506;-80
2022/10/25 12:48:02;;;;;;;22.80;20.70;;;;;;;22.20;43.35;95248.69;6134279;28;103435;-80
2022/10/25 12:51:19;;;;;;;22.67;20.57;;;;;;;22.22;43.29;95259.06;6142421;28;105081;-79
2022/10/25 12:54:38;;;;;;;21.97;19.90;;;;;;;22.18;43.26;95256.22;6141804;28;103314;-79
2022/10/25 12:57:51;;;;;;;21.00;18.90;;;;;;;22.20;43.34;95261.25;6139560;28;103395;-80
2022/10/25 13:01:14;;;;;;;22.60;20.60;;;;;;;22.18;42.95;95258.88;6137837;28;104520;-79
2022/10/25 13:04:54;;;;;;;21.40;19.70;;;;;;;22.18;42.67;95253.56;6141688;28;103155;-78
2022/10/25 13:08:07;;;;;;;21.70;19.73;;;;;;;22.19;43.21;95263.13;6140866;28;103555;-79
2022/10/25 13:11:10;;;;;;;21.07;18.87;;;;;;;22.17;42.91;95259.94;6135658;28;103516;-77
2022/10/25 13:14:23;;;;;;;20.73;18.83;;;;;;;22.16;43.20;95262.91;6141622;28;102930;-78
2022/10/25 13:18:00;;;;;;;20.17;18.27;;;;;;;22.17;42.81;95253.81;6141394;28;103416;-78
2022/10/25 13:21:06;;;;;;;18.03;16.40;;;;;;;22.14;43.14;95251.75;6132117;28;104328;-79
2022/10/25 13:24:10;;;;;;;19.23;17.63;;;;;;;22.18;43.11;95247.41;6139977;28;102894;-78
2022/10/25 13:27:22;;;;;;;17.70;16.20;;;;;;;22.16;43.01;95246.91;6141515;28;102822;-78
2022/10/25 13:30:27;;;;;;;18.50;16.80;;;;;;;22.17;42.63;95237.84;6141117;28;103103;-79
2022/10/25 13:33:32;;;;;;;18.17;16.27;;;;;;;22.16;42.87;95239.72;6134197;28;103791;-79
2022/10/25 13:36:52;;;;;;;16.23;14.93;;;;;;;22.16;42.95;95241.59;6141870;28;104370;-79
2022/10/25 13:39:56;;;;;;;17.00;15.43;;;;;;;22.15;42.58;95245.34;6141248;28;103450;-80
2022/10/25 13:43:02;;;;;;;16.47;15.07;;;;;;;22.15;42.80;95245.34;6141104;28;103979;-80
2022/10/25 13:46:11;;;;;;;16.23;14.73;;;;;;;22.14;42.83;95241.88;6137206;28;103083;-80
2022/10/25 13:49:33;;;;;;;16.23;14.73;;;;;;;22.14;42.47;95243.78;6141842;28;102680;-80
2022/10/25 13:52:38;;;;;;;16.10;14.40;;;;;;;22.14;42.47;95244.56;6140473;28;103290;-79
2022/10/25 13:55:47;;;;;;;15.23;13.83;;;;;;;22.12;42.52;95241.41;6134874;28;104120;-79
2022/10/25 13:58:52;;;;;;;16.07;14.40;;;;;;;22.14;42.41;95249.09;6141072;28;103099;-79
2022/10/25 14:02:08;;;;;;;14.73;13.33;;;;;;;22.10;42.61;95233.72;6140604;28;103328;-78
2022/10/25 14:05:11;;;;;;;14.17;12.83;;;;;;;22.11;42.57;95239.84;6140812;28;103630;-78
2022/10/25 14:08:25;;;;;;;14.10;12.60;;;;;;;22.11;42.27;95239.84;6133539;28;103168;-79
2022/10/25 14:11:37;;;;;;;15.47;13.97;;;;;;;22.08;42.64;95230.56;6141260;28;103417;-80
2022/10/25 14:14:54;;;;;;;14.30;12.90;;;;;;;22.10;42.77;95232.94;6141712;28;106199;-80
2022/10/25 14:17:59;;;;;;;13.70;12.50;;;;;;;22.10;42.27;95228.38;6135046;28;105651;-80
2022/10/25 14:21:08;;;;;;;13.77;12.20;;;;;;;22.10;42.83;95244.38;6140676;28;104298;-79